Current Conditions
Partly Cloudy
Conditions



Pressure
1016.92 (hPa) - 30.03 (inHG)
Visibility

10.0 (km) - 6.2 (miles)
   Temperature
25  °C
77°F
17  °C
Dewpoint
61  %
 Humidity
   Wind Speed
11  km/h
6  kts
7  mph
3.1  m/s
   Wind Direction
 30°
North North
East
   Airport Data
LIME
Location Il Caravaggio International Airport 45 km (27.97 mi)
Metar :LIME 130750Z 03006KT 360V060 9999 FEW065 25/17 Q1017 NOSIG
Thu 13th August 08:50 am
   Raw Metar Info
Raw METAR is the most common format in the world for the transmission of observational weather data. It is highly standardized through the International Civil Aviation Organization (ICAO), which allows it to be understood throughout most of the world.
   API Info
Data Provided by
https://www.checkwx.com/weather/LIME
   © Info
CSS/SVG/PHP scripts were developed by weather34.com for use in the weather34 template © 2015-2020

Guide Info provided by Metar-Wikipedia